sensor_id;sensor_type;location;lat;lon;timestamp;P1;durP1;ratioP1;P2;durP2;ratioP2
583;SDS011;27024;54.068;12.116;2023-04-03T00:01:19;10.25;;;2.90;;
583;SDS011;27024;54.068;12.116;2023-04-03T00:03:46;9.57;;;2.95;;
583;SDS011;27024;54.068;12.116;2023-04-03T00:06:13;9.27;;;2.58;;
583;SDS011;27024;54.068;12.116;2023-04-03T00:08:40;4.50;;;2.03;;
583;SDS011;27024;54.068;12.116;2023-04-03T00:11:07;4.65;;;1.70;;
583;SDS011;27024;54.068;12.116;2023-04-03T00:13:35;3.58;;;0.82;;
583;SDS011;27024;54.068;12.116;2023-04-03T00:16:02;3.40;;;0.77;;
583;SDS011;27024;54.068;12.116;2023-04-03T00:18:29;2.50;;;0.50;;
583;SDS011;27024;54.068;12.116;2023-04-03T00:20:56;6.40;;;1.05;;
583;SDS011;27024;54.068;12.116;2023-04-03T00:23:24;5.63;;;0.63;;
583;SDS011;27024;54.068;12.116;2023-04-03T00:25:51;2.63;;;0.75;;
583;SDS011;27024;54.068;12.116;2023-04-03T00:28:18;3.20;;;0.70;;
583;SDS011;27024;54.068;12.116;2023-04-03T00:30:45;3.65;;;0.60;;
583;SDS011;27024;54.068;12.116;2023-04-03T00:33:12;2.85;;;0.85;;
583;SDS011;27024;54.068;12.116;2023-04-03T00:35:40;3.05;;;0.60;;
583;SDS011;27024;54.068;12.116;2023-04-03T00:38:08;2.78;;;0.70;;
583;SDS011;27024;54.068;12.116;2023-04-03T00:40:36;5.07;;;0.73;;
583;SDS011;27024;54.068;12.116;2023-04-03T00:43:09;2.95;;;0.40;;
583;SDS011;27024;54.068;12.116;2023-04-03T00:45:39;2.72;;;0.60;;
583;SDS011;27024;54.068;12.116;2023-04-03T00:48:10;8.52;;;0.82;;
583;SDS011;27024;54.068;12.116;2023-04-03T00:50:40;4.88;;;1.02;;
583;SDS011;27024;54.068;12.116;2023-04-03T00:53:10;2.88;;;0.50;;
583;SDS011;27024;54.068;12.116;2023-04-03T00:55:40;5.55;;;0.43;;
583;SDS011;27024;54.068;12.116;2023-04-03T00:58:08;2.33;;;0.60;;
583;SDS011;27024;54.068;12.116;2023-04-03T01:00:37;4.32;;;1.20;;
583;SDS011;27024;54.068;12.116;2023-04-03T01:03:06;4.03;;;0.88;;
583;SDS011;27024;54.068;12.116;2023-04-03T01:05:33;6.60;;;1.10;;
583;SDS011;27024;54.068;12.116;2023-04-03T01:08:00;6.18;;;0.77;;
583;SDS011;27024;54.068;12.116;2023-04-03T01:10:28;6.70;;;0.90;;
583;SDS011;27024;54.068;12.116;2023-04-03T01:12:55;2.28;;;0.82;;
583;SDS011;27024;54.068;12.116;2023-04-03T01:15:23;4.35;;;0.68;;
583;SDS011;27024;54.068;12.116;2023-04-03T01:17:53;4.22;;;0.73;;
583;SDS011;27024;54.068;12.116;2023-04-03T01:25:38;1.77;;;0.50;;
583;SDS011;27024;54.068;12.116;2023-04-03T01:28:10;2.45;;;0.70;;
583;SDS011;27024;54.068;12.116;2023-04-03T01:30:44;3.28;;;0.50;;
583;SDS011;27024;54.068;12.116;2023-04-03T01:33:19;3.42;;;0.68;;
583;SDS011;27024;54.068;12.116;2023-04-03T01:35:46;4.22;;;0.70;;
583;SDS011;27024;54.068;12.116;2023-04-03T01:38:13;2.90;;;0.73;;
583;SDS011;27024;54.068;12.116;2023-04-03T01:40:40;2.72;;;0.55;;
583;SDS011;27024;54.068;12.116;2023-04-03T01:43:07;4.70;;;0.40;;
583;SDS011;27024;54.068;12.116;2023-04-03T01:45:34;4.25;;;0.80;;
583;SDS011;27024;54.068;12.116;2023-04-03T01:48:01;8.60;;;1.42;;
583;SDS011;27024;54.068;12.116;2023-04-03T01:50:28;3.58;;;0.98;;
583;SDS011;27024;54.068;12.116;2023-04-03T01:52:55;2.22;;;0.32;;
583;SDS011;27024;54.068;12.116;2023-04-03T01:55:22;4.13;;;0.57;;
583;SDS011;27024;54.068;12.116;2023-04-03T01:57:49;5.95;;;0.68;;
583;SDS011;27024;54.068;12.116;2023-04-03T02:00:16;4.15;;;0.68;;
583;SDS011;27024;54.068;12.116;2023-04-03T02:02:43;2.90;;;0.68;;
583;SDS011;27024;54.068;12.116;2023-04-03T02:05:09;4.55;;;0.52;;
583;SDS011;27024;54.068;12.116;2023-04-03T02:07:36;4.65;;;0.80;;
583;SDS011;27024;54.068;12.116;2023-04-03T02:10:03;4.65;;;0.47;;
583;SDS011;27024;54.068;12.116;2023-04-03T02:12:30;2.80;;;0.98;;
583;SDS011;27024;54.068;12.116;2023-04-03T02:14:57;3.50;;;0.75;;
583;SDS011;27024;54.068;12.116;2023-04-03T02:17:24;2.80;;;0.40;;
583;SDS011;27024;54.068;12.116;2023-04-03T02:19:51;3.25;;;0.52;;
583;SDS011;27024;54.068;12.116;2023-04-03T02:22:18;2.70;;;0.40;;
583;SDS011;27024;54.068;12.116;2023-04-03T02:24:45;4.13;;;0.63;;
583;SDS011;27024;54.068;12.116;2023-04-03T02:27:12;4.25;;;0.50;;
583;SDS011;27024;54.068;12.116;2023-04-03T02:29:39;4.13;;;0.50;;
583;SDS011;27024;54.068;12.116;2023-04-03T02:32:06;2.67;;;0.60;;
583;SDS011;27024;54.068;12.116;2023-04-03T02:34:32;3.50;;;0.75;;
583;SDS011;27024;54.068;12.116;2023-04-03T02:36:59;4.03;;;0.50;;
583;SDS011;27024;54.068;12.116;2023-04-03T02:39:26;2.90;;;0.77;;
583;SDS011;27024;54.068;12.116;2023-04-03T02:41:53;2.97;;;0.55;;
583;SDS011;27024;54.068;12.116;2023-04-03T02:44:20;4.13;;;0.90;;
583;SDS011;27024;54.068;12.116;2023-04-03T02:46:46;3.97;;;0.30;;
583;SDS011;27024;54.068;12.116;2023-04-03T02:49:13;5.40;;;0.68;;
583;SDS011;27024;54.068;12.116;2023-04-03T02:51:40;2.80;;;0.32;;
583;SDS011;27024;54.068;12.116;2023-04-03T02:54:07;1.77;;;0.43;;
583;SDS011;27024;54.068;12.116;2023-04-03T02:56:34;4.05;;;0.40;;
583;SDS011;27024;54.068;12.116;2023-04-03T02:59:01;5.65;;;0.77;;
583;SDS011;27024;54.068;12.116;2023-04-03T03:01:28;2.17;;;0.57;;
583;SDS011;27024;54.068;12.116;2023-04-03T03:03:58;4.30;;;0.52;;
583;SDS011;27024;54.068;12.116;2023-04-03T03:06:26;4.25;;;0.57;;
583;SDS011;27024;54.068;12.116;2023-04-03T03:08:53;3.25;;;0.63;;
583;SDS011;27024;54.068;12.116;2023-04-03T03:11:19;3.13;;;0.60;;
583;SDS011;27024;54.068;12.116;2023-04-03T03:13:47;3.50;;;0.52;;
583;SDS011;27024;54.068;12.116;2023-04-03T03:16:14;4.55;;;0.50;;
583;SDS011;27024;54.068;12.116;2023-04-03T03:18:41;2.38;;;0.52;;
583;SDS011;27024;54.068;12.116;2023-04-03T03:21:08;3.30;;;0.43;;
583;SDS011;27024;54.068;12.116;2023-04-03T03:23:36;3.97;;;1.17;;
583;SDS011;27024;54.068;12.116;2023-04-03T03:26:04;3.50;;;0.65;;
583;SDS011;27024;54.068;12.116;2023-04-03T03:28:33;5.47;;;0.70;;
583;SDS011;27024;54.068;12.116;2023-04-03T03:31:00;7.07;;;0.70;;
583;SDS011;27024;54.068;12.116;2023-04-03T03:33:28;4.43;;;0.60;;
583;SDS011;27024;54.068;12.116;2023-04-03T03:35:55;5.60;;;0.98;;
583;SDS011;27024;54.068;12.116;2023-04-03T03:38:22;3.08;;;0.73;;
583;SDS011;27024;54.068;12.116;2023-04-03T03:40:50;4.10;;;0.50;;
583;SDS011;27024;54.068;12.116;2023-04-03T03:43:17;3.00;;;0.70;;
583;SDS011;27024;54.068;12.116;2023-04-03T03:45:44;2.22;;;0.55;;
583;SDS011;27024;54.068;12.116;2023-04-03T03:48:13;6.78;;;1.08;;
583;SDS011;27024;54.068;12.116;2023-04-03T03:50:39;4.53;;;0.40;;
583;SDS011;27024;54.068;12.116;2023-04-03T03:53:06;4.88;;;0.73;;
583;SDS011;27024;54.068;12.116;2023-04-03T03:55:33;4.75;;;0.60;;
583;SDS011;27024;54.068;12.116;2023-04-03T03:58:00;3.25;;;0.50;;
583;SDS011;27024;54.068;12.116;2023-04-03T04:00:27;2.47;;;1.17;;
583;SDS011;27024;54.068;12.116;2023-04-03T04:02:54;3.35;;;0.40;;
583;SDS011;27024;54.068;12.116;2023-04-03T04:05:24;3.45;;;0.50;;
583;SDS011;27024;54.068;12.116;2023-04-03T04:07:51;4.65;;;0.50;;
583;SDS011;27024;54.068;12.116;2023-04-03T04:10:18;5.10;;;0.52;;
583;SDS011;27024;54.068;12.116;2023-04-03T04:12:44;4.50;;;0.80;;
583;SDS011;27024;54.068;12.116;2023-04-03T04:15:11;1.75;;;0.47;;
583;SDS011;27024;54.068;12.116;2023-04-03T04:17:38;5.75;;;0.57;;
583;SDS011;27024;54.068;12.116;2023-04-03T04:20:05;4.43;;;0.47;;
583;SDS011;27024;54.068;12.116;2023-04-03T04:22:32;3.78;;;0.38;;
583;SDS011;27024;54.068;12.116;2023-04-03T04:24:59;4.47;;;0.65;;
583;SDS011;27024;54.068;12.116;2023-04-03T04:27:26;4.47;;;0.60;;
583;SDS011;27024;54.068;12.116;2023-04-03T04:29:53;4.28;;;0.75;;
583;SDS011;27024;54.068;12.116;2023-04-03T04:32:20;2.60;;;0.73;;
583;SDS011;27024;54.068;12.116;2023-04-03T04:34:47;4.93;;;0.70;;
583;SDS011;27024;54.068;12.116;2023-04-03T04:37:13;3.60;;;0.50;;
583;SDS011;27024;54.068;12.116;2023-04-03T04:39:40;4.47;;;0.52;;
583;SDS011;27024;54.068;12.116;2023-04-03T04:42:07;4.90;;;0.80;;
583;SDS011;27024;54.068;12.116;2023-04-03T04:44:42;3.45;;;0.85;;
583;SDS011;27024;54.068;12.116;2023-04-03T04:47:08;1.30;;;0.35;;
583;SDS011;27024;54.068;12.116;2023-04-03T04:49:35;5.32;;;0.70;;
583;SDS011;27024;54.068;12.116;2023-04-03T04:52:03;3.25;;;0.55;;
583;SDS011;27024;54.068;12.116;2023-04-03T04:54:29;4.07;;;0.52;;
583;SDS011;27024;54.068;12.116;2023-04-03T04:56:56;5.35;;;1.02;;
583;SDS011;27024;54.068;12.116;2023-04-03T04:59:23;5.22;;;0.73;;
583;SDS011;27024;54.068;12.116;2023-04-03T05:01:50;2.40;;;0.68;;
583;SDS011;27024;54.068;12.116;2023-04-03T05:04:17;6.47;;;0.90;;
583;SDS011;27024;54.068;12.116;2023-04-03T05:06:44;6.32;;;0.88;;
583;SDS011;27024;54.068;12.116;2023-04-03T05:09:11;3.67;;;1.25;;
583;SDS011;27024;54.068;12.116;2023-04-03T05:11:38;6.15;;;1.00;;
583;SDS011;27024;54.068;12.116;2023-04-03T05:14:05;3.25;;;0.77;;
583;SDS011;27024;54.068;12.116;2023-04-03T05:16:33;4.05;;;0.80;;
583;SDS011;27024;54.068;12.116;2023-04-03T05:19:00;4.25;;;0.85;;
583;SDS011;27024;54.068;12.116;2023-04-03T05:21:27;5.57;;;0.73;;
583;SDS011;27024;54.068;12.116;2023-04-03T05:24:01;5.22;;;0.90;;
583;SDS011;27024;54.068;12.116;2023-04-03T05:26:30;3.08;;;0.68;;
583;SDS011;27024;54.068;12.116;2023-04-03T05:28:57;5.50;;;0.82;;
583;SDS011;27024;54.068;12.116;2023-04-03T05:31:24;4.05;;;0.40;;
583;SDS011;27024;54.068;12.116;2023-04-03T05:33:51;3.58;;;0.60;;
583;SDS011;27024;54.068;12.116;2023-04-03T05:36:18;4.55;;;0.60;;
583;SDS011;27024;54.068;12.116;2023-04-03T05:38:45;2.38;;;0.55;;
583;SDS011;27024;54.068;12.116;2023-04-03T05:41:13;2.08;;;0.65;;
583;SDS011;27024;54.068;12.116;2023-04-03T05:43:40;5.03;;;0.52;;
583;SDS011;27024;54.068;12.116;2023-04-03T05:46:11;5.57;;;1.13;;
583;SDS011;27024;54.068;12.116;2023-04-03T05:48:38;3.85;;;0.80;;
583;SDS011;27024;54.068;12.116;2023-04-03T05:51:06;4.70;;;0.60;;
583;SDS011;27024;54.068;12.116;2023-04-03T05:53:35;5.40;;;0.52;;
583;SDS011;27024;54.068;12.116;2023-04-03T05:58:32;2.40;;;0.50;;
583;SDS011;27024;54.068;12.116;2023-04-03T06:00:59;3.20;;;0.57;;
583;SDS011;27024;54.068;12.116;2023-04-03T06:03:26;2.67;;;0.50;;
583;SDS011;27024;54.068;12.116;2023-04-03T06:05:53;4.65;;;0.47;;
583;SDS011;27024;54.068;12.116;2023-04-03T06:08:20;3.42;;;0.52;;
583;SDS011;27024;54.068;12.116;2023-04-03T06:10:47;4.63;;;0.68;;
583;SDS011;27024;54.068;12.116;2023-04-03T06:13:14;3.58;;;0.75;;
583;SDS011;27024;54.068;12.116;2023-04-03T06:15:41;5.20;;;0.68;;
583;SDS011;27024;54.068;12.116;2023-04-03T06:18:08;4.97;;;0.52;;
583;SDS011;27024;54.068;12.116;2023-04-03T06:20:35;4.18;;;0.63;;
583;SDS011;27024;54.068;12.116;2023-04-03T06:23:02;6.55;;;0.88;;
583;SDS011;27024;54.068;12.116;2023-04-03T06:25:29;4.55;;;0.40;;
583;SDS011;27024;54.068;12.116;2023-04-03T06:27:56;7.18;;;0.50;;
583;SDS011;27024;54.068;12.116;2023-04-03T06:30:23;4.82;;;0.75;;
583;SDS011;27024;54.068;12.116;2023-04-03T06:32:49;5.13;;;0.75;;
583;SDS011;27024;54.068;12.116;2023-04-03T06:35:16;5.22;;;0.63;;
583;SDS011;27024;54.068;12.116;2023-04-03T06:37:43;5.45;;;0.63;;
583;SDS011;27024;54.068;12.116;2023-04-03T06:40:15;3.90;;;0.85;;
583;SDS011;27024;54.068;12.116;2023-04-03T06:42:47;3.28;;;0.40;;
583;SDS011;27024;54.068;12.116;2023-04-03T06:45:14;3.88;;;0.52;;
583;SDS011;27024;54.068;12.116;2023-04-03T06:47:41;5.18;;;0.82;;
583;SDS011;27024;54.068;12.116;2023-04-03T06:50:09;6.57;;;1.10;;
583;SDS011;27024;54.068;12.116;2023-04-03T06:52:37;4.13;;;0.60;;
583;SDS011;27024;54.068;12.116;2023-04-03T06:55:06;4.45;;;0.73;;
583;SDS011;27024;54.068;12.116;2023-04-03T06:57:33;5.85;;;0.55;;
583;SDS011;27024;54.068;12.116;2023-04-03T07:00:00;5.18;;;0.98;;
583;SDS011;27024;54.068;12.116;2023-04-03T07:02:27;4.75;;;1.02;;
583;SDS011;27024;54.068;12.116;2023-04-03T07:04:54;7.13;;;0.68;;
583;SDS011;27024;54.068;12.116;2023-04-03T07:07:21;4.00;;;0.70;;
583;SDS011;27024;54.068;12.116;2023-04-03T07:09:48;4.07;;;0.73;;
583;SDS011;27024;54.068;12.116;2023-04-03T07:12:15;2.80;;;0.40;;
583;SDS011;27024;54.068;12.116;2023-04-03T07:14:42;7.85;;;1.00;;
583;SDS011;27024;54.068;12.116;2023-04-03T07:17:10;3.42;;;0.63;;
583;SDS011;27024;54.068;12.116;2023-04-03T07:19:36;4.80;;;0.43;;
583;SDS011;27024;54.068;12.116;2023-04-03T07:22:03;1.42;;;0.50;;
583;SDS011;27024;54.068;12.116;2023-04-03T07:24:30;4.03;;;0.52;;
583;SDS011;27024;54.068;12.116;2023-04-03T07:26:57;3.05;;;0.45;;
583;SDS011;27024;54.068;12.116;2023-04-03T07:29:24;3.75;;;0.50;;
583;SDS011;27024;54.068;12.116;2023-04-03T07:31:50;3.90;;;0.43;;
583;SDS011;27024;54.068;12.116;2023-04-03T07:34:17;5.32;;;0.40;;
583;SDS011;27024;54.068;12.116;2023-04-03T07:36:44;5.13;;;0.60;;
583;SDS011;27024;54.068;12.116;2023-04-03T07:39:11;3.70;;;0.45;;
583;SDS011;27024;54.068;12.116;2023-04-03T07:41:38;2.53;;;0.60;;
583;SDS011;27024;54.068;12.116;2023-04-03T07:44:05;4.20;;;0.82;;
583;SDS011;27024;54.068;12.116;2023-04-03T07:46:32;2.75;;;0.45;;
583;SDS011;27024;54.068;12.116;2023-04-03T07:48:59;3.65;;;0.55;;
583;SDS011;27024;54.068;12.116;2023-04-03T07:51:26;3.38;;;0.90;;
583;SDS011;27024;54.068;12.116;2023-04-03T07:53:53;3.80;;;0.40;;
583;SDS011;27024;54.068;12.116;2023-04-03T07:56:20;4.43;;;0.50;;
583;SDS011;27024;54.068;12.116;2023-04-03T07:58:47;3.15;;;0.63;;
583;SDS011;27024;54.068;12.116;2023-04-03T08:01:14;4.13;;;0.32;;
583;SDS011;27024;54.068;12.116;2023-04-03T08:03:41;3.08;;;0.40;;
583;SDS011;27024;54.068;12.116;2023-04-03T08:06:08;1.98;;;0.52;;
583;SDS011;27024;54.068;12.116;2023-04-03T08:08:41;4.60;;;0.55;;
583;SDS011;27024;54.068;12.116;2023-04-03T08:11:09;2.88;;;0.47;;
583;SDS011;27024;54.068;12.116;2023-04-03T08:13:37;6.18;;;0.68;;
583;SDS011;27024;54.068;12.116;2023-04-03T08:16:08;5.72;;;0.40;;
583;SDS011;27024;54.068;12.116;2023-04-03T08:18:37;4.40;;;0.70;;
583;SDS011;27024;54.068;12.116;2023-04-03T08:21:05;1.80;;;0.45;;
583;SDS011;27024;54.068;12.116;2023-04-03T08:23:33;3.35;;;0.43;;
583;SDS011;27024;54.068;12.116;2023-04-03T08:26:14;5.43;;;0.50;;
583;SDS011;27024;54.068;12.116;2023-04-03T08:28:42;2.35;;;0.50;;
583;SDS011;27024;54.068;12.116;2023-04-03T08:31:11;3.72;;;0.88;;
583;SDS011;27024;54.068;12.116;2023-04-03T08:33:40;3.83;;;0.52;;
583;SDS011;27024;54.068;12.116;2023-04-03T08:36:14;4.10;;;0.32;;
583;SDS011;27024;54.068;12.116;2023-04-03T08:38:46;5.28;;;1.58;;
583;SDS011;27024;54.068;12.116;2023-04-03T08:44:14;5.65;;;0.50;;
583;SDS011;27024;54.068;12.116;2023-04-03T08:51:54;2.88;;;0.55;;
583;SDS011;27024;54.068;12.116;2023-04-03T08:54:33;3.50;;;0.52;;
583;SDS011;27024;54.068;12.116;2023-04-03T08:57:02;3.40;;;0.43;;
583;SDS011;27024;54.068;12.116;2023-04-03T08:59:33;2.83;;;0.50;;
583;SDS011;27024;54.068;12.116;2023-04-03T09:02:04;4.72;;;0.43;;
583;SDS011;27024;54.068;12.116;2023-04-03T09:04:55;2.20;;;0.60;;
583;SDS011;27024;54.068;12.116;2023-04-03T09:07:25;3.42;;;0.32;;
583;SDS011;27024;54.068;12.116;2023-04-03T09:10:12;3.67;;;0.75;;
583;SDS011;27024;54.068;12.116;2023-04-03T09:12:49;3.08;;;0.50;;
583;SDS011;27024;54.068;12.116;2023-04-03T09:15:24;2.92;;;0.50;;
583;SDS011;27024;54.068;12.116;2023-04-03T09:18:05;4.18;;;0.50;;
583;SDS011;27024;54.068;12.116;2023-04-03T09:26:23;2.72;;;0.52;;
583;SDS011;27024;54.068;12.116;2023-04-03T09:28:53;3.22;;;0.60;;
583;SDS011;27024;54.068;12.116;2023-04-03T09:31:26;4.15;;;0.75;;
583;SDS011;27024;54.068;12.116;2023-04-03T09:33:59;3.78;;;0.47;;
583;SDS011;27024;54.068;12.116;2023-04-03T09:39:18;1.83;;;0.30;;
583;SDS011;27024;54.068;12.116;2023-04-03T09:42:00;2.05;;;0.30;;
583;SDS011;27024;54.068;12.116;2023-04-03T09:44:33;2.53;;;0.20;;
583;SDS011;27024;54.068;12.116;2023-04-03T09:52:38;2.08;;;0.40;;
583;SDS011;27024;54.068;12.116;2023-04-03T09:55:07;6.07;;;0.40;;
583;SDS011;27024;54.068;12.116;2023-04-03T09:57:40;1.70;;;0.20;;
583;SDS011;27024;54.068;12.116;2023-04-03T10:00:19;3.03;;;0.40;;
583;SDS011;27024;54.068;12.116;2023-04-03T10:02:53;2.15;;;0.30;;
583;SDS011;27024;54.068;12.116;2023-04-03T10:05:32;1.20;;;0.22;;
583;SDS011;27024;54.068;12.116;2023-04-03T10:11:08;1.67;;;0.32;;
583;SDS011;27024;54.068;12.116;2023-04-03T10:13:36;1.20;;;0.40;;
583;SDS011;27024;54.068;12.116;2023-04-03T10:16:17;2.05;;;0.30;;
583;SDS011;27024;54.068;12.116;2023-04-03T10:18:49;2.25;;;0.50;;
583;SDS011;27024;54.068;12.116;2023-04-03T10:26:41;2.10;;;0.30;;
583;SDS011;27024;54.068;12.116;2023-04-03T10:35:08;6.50;;;0.60;;
583;SDS011;27024;54.068;12.116;2023-04-03T10:40:52;3.00;;;0.88;;
583;SDS011;27024;54.068;12.116;2023-04-03T10:43:32;1.92;;;0.20;;
583;SDS011;27024;54.068;12.116;2023-04-03T10:46:11;2.63;;;0.60;;
583;SDS011;27024;54.068;12.116;2023-04-03T10:48:49;1.77;;;0.20;;
583;SDS011;27024;54.068;12.116;2023-04-03T10:51:49;2.08;;;0.63;;
583;SDS011;27024;54.068;12.116;2023-04-03T10:57:11;5.93;;;1.13;;
583;SDS011;27024;54.068;12.116;2023-04-03T10:59:56;2.05;;;0.43;;
583;SDS011;27024;54.068;12.116;2023-04-03T11:05:17;3.90;;;0.75;;
583;SDS011;27024;54.068;12.116;2023-04-03T11:07:51;5.07;;;0.50;;
583;SDS011;27024;54.068;12.116;2023-04-03T11:10:21;2.50;;;0.73;;
583;SDS011;27024;54.068;12.116;2023-04-03T11:12:54;2.58;;;0.88;;
583;SDS011;27024;54.068;12.116;2023-04-03T11:15:29;3.15;;;0.63;;
583;SDS011;27024;54.068;12.116;2023-04-03T11:19:01;3.80;;;0.70;;
583;SDS011;27024;54.068;12.116;2023-04-03T11:21:01;4.93;;;1.17;;
583;SDS011;27024;54.068;12.116;2023-04-03T11:23:36;3.92;;;1.00;;
583;SDS011;27024;54.068;12.116;2023-04-03T11:26:17;3.20;;;0.80;;
583;SDS011;27024;54.068;12.116;2023-04-03T11:28:51;2.38;;;0.73;;
583;SDS011;27024;54.068;12.116;2023-04-03T11:37:06;3.72;;;0.90;;
583;SDS011;27024;54.068;12.116;2023-04-03T11:39:52;3.50;;;0.90;;
583;SDS011;27024;54.068;12.116;2023-04-03T11:47:53;3.53;;;1.05;;
583;SDS011;27024;54.068;12.116;2023-04-03T11:58:15;8.90;;;1.02;;
583;SDS011;27024;54.068;12.116;2023-04-03T12:08:26;5.45;;;1.63;;
583;SDS011;27024;54.068;12.116;2023-04-03T12:16:22;4.75;;;1.23;;
583;SDS011;27024;54.068;12.116;2023-04-03T12:19:24;5.45;;;1.33;;
583;SDS011;27024;54.068;12.116;2023-04-03T12:22:12;2.28;;;0.80;;
583;SDS011;27024;54.068;12.116;2023-04-03T12:24:42;4.80;;;0.70;;
583;SDS011;27024;54.068;12.116;2023-04-03T12:30:07;4.80;;;1.02;;
583;SDS011;27024;54.068;12.116;2023-04-03T12:32:50;6.03;;;0.90;;
583;SDS011;27024;54.068;12.116;2023-04-03T12:41:36;3.88;;;1.15;;
583;SDS011;27024;54.068;12.116;2023-04-03T12:44:21;4.03;;;0.63;;
583;SDS011;27024;54.068;12.116;2023-04-03T12:46:52;3.00;;;0.73;;
583;SDS011;27024;54.068;12.116;2023-04-03T12:51:49;6.13;;;0.88;;
583;SDS011;27024;54.068;12.116;2023-04-03T12:54:19;5.93;;;0.95;;
583;SDS011;27024;54.068;12.116;2023-04-03T12:57:09;5.30;;;1.20;;
583;SDS011;27024;54.068;12.116;2023-04-03T12:59:44;5.65;;;1.00;;
583;SDS011;27024;54.068;12.116;2023-04-03T13:02:32;5.70;;;1.00;;
583;SDS011;27024;54.068;12.116;2023-04-03T13:05:05;4.28;;;0.82;;
583;SDS011;27024;54.068;12.116;2023-04-03T13:07:36;5.18;;;1.30;;
583;SDS011;27024;54.068;12.116;2023-04-03T13:12:35;3.45;;;0.90;;
583;SDS011;27024;54.068;12.116;2023-04-03T13:15:23;3.72;;;0.80;;
583;SDS011;27024;54.068;12.116;2023-04-03T13:17:54;4.47;;;0.88;;
583;SDS011;27024;54.068;12.116;2023-04-03T13:20:26;3.10;;;0.98;;
583;SDS011;27024;54.068;12.116;2023-04-03T13:23:03;3.35;;;1.02;;
583;SDS011;27024;54.068;12.116;2023-04-03T13:25:36;4.35;;;0.85;;
583;SDS011;27024;54.068;12.116;2023-04-03T13:28:09;6.80;;;1.42;;
583;SDS011;27024;54.068;12.116;2023-04-03T13:30:40;4.35;;;0.80;;
583;SDS011;27024;54.068;12.116;2023-04-03T13:33:24;4.40;;;1.55;;
583;SDS011;27024;54.068;12.116;2023-04-03T13:36:15;6.13;;;1.17;;
583;SDS011;27024;54.068;12.116;2023-04-03T13:38:44;2.90;;;0.80;;
583;SDS011;27024;54.068;12.116;2023-04-03T13:41:32;6.93;;;1.10;;
583;SDS011;27024;54.068;12.116;2023-04-03T13:44:18;5.18;;;1.33;;
583;SDS011;27024;54.068;12.116;2023-04-03T13:46:58;5.03;;;1.00;;
583;SDS011;27024;54.068;12.116;2023-04-03T13:49:43;4.82;;;0.88;;
583;SDS011;27024;54.068;12.116;2023-04-03T13:52:23;7.55;;;1.02;;
583;SDS011;27024;54.068;12.116;2023-04-03T13:54:59;3.40;;;0.63;;
583;SDS011;27024;54.068;12.116;2023-04-03T14:02:51;4.57;;;1.00;;
583;SDS011;27024;54.068;12.116;2023-04-03T14:06:35;4.00;;;0.95;;
583;SDS011;27024;54.068;12.116;2023-04-03T14:24:35;2.25;;;0.63;;
583;SDS011;27024;54.068;12.116;2023-04-03T14:31:13;2.47;;;1.02;;
583;SDS011;27024;54.068;12.116;2023-04-03T14:33:49;3.65;;;0.77;;
583;SDS011;27024;54.068;12.116;2023-04-03T14:36:17;4.80;;;0.93;;
583;SDS011;27024;54.068;12.116;2023-04-03T14:38:48;4.07;;;0.80;;
583;SDS011;27024;54.068;12.116;2023-04-03T14:41:17;3.88;;;0.35;;
583;SDS011;27024;54.068;12.116;2023-04-03T14:43:46;4.63;;;1.02;;
583;SDS011;27024;54.068;12.116;2023-04-03T14:46:14;3.30;;;1.15;;
583;SDS011;27024;54.068;12.116;2023-04-03T14:48:44;1.83;;;0.70;;
583;SDS011;27024;54.068;12.116;2023-04-03T14:51:11;3.55;;;0.77;;
583;SDS011;27024;54.068;12.116;2023-04-03T14:53:40;4.13;;;0.60;;
583;SDS011;27024;54.068;12.116;2023-04-03T14:56:13;2.78;;;0.93;;
583;SDS011;27024;54.068;12.116;2023-04-03T14:58:42;2.33;;;0.50;;
583;SDS011;27024;54.068;12.116;2023-04-03T15:01:10;2.00;;;0.40;;
583;SDS011;27024;54.068;12.116;2023-04-03T15:03:38;2.65;;;0.63;;
583;SDS011;27024;54.068;12.116;2023-04-03T15:06:05;2.00;;;0.88;;
583;SDS011;27024;54.068;12.116;2023-04-03T15:08:32;2.70;;;0.70;;
583;SDS011;27024;54.068;12.116;2023-04-03T15:10:59;3.35;;;0.77;;
583;SDS011;27024;54.068;12.116;2023-04-03T15:13:27;2.25;;;0.65;;
583;SDS011;27024;54.068;12.116;2023-04-03T15:15:54;2.22;;;0.50;;
583;SDS011;27024;54.068;12.116;2023-04-03T15:18:25;5.57;;;0.50;;
583;SDS011;27024;54.068;12.116;2023-04-03T15:20:56;3.42;;;0.40;;
583;SDS011;27024;54.068;12.116;2023-04-03T15:23:23;3.08;;;0.40;;
583;SDS011;27024;54.068;12.116;2023-04-03T15:25:54;1.52;;;0.50;;
583;SDS011;27024;54.068;12.116;2023-04-03T15:28:22;3.08;;;0.50;;
583;SDS011;27024;54.068;12.116;2023-04-03T15:30:53;5.05;;;0.55;;
583;SDS011;27024;54.068;12.116;2023-04-03T15:33:20;2.25;;;0.47;;
583;SDS011;27024;54.068;12.116;2023-04-03T15:35:49;2.03;;;0.30;;
583;SDS011;27024;54.068;12.116;2023-04-03T15:38:16;2.80;;;0.60;;
583;SDS011;27024;54.068;12.116;2023-04-03T15:40:43;1.67;;;0.40;;
583;SDS011;27024;54.068;12.116;2023-04-03T15:43:10;3.10;;;0.50;;
583;SDS011;27024;54.068;12.116;2023-04-03T15:45:37;2.03;;;0.80;;
583;SDS011;27024;54.068;12.116;2023-04-03T15:48:05;3.00;;;0.80;;
583;SDS011;27024;54.068;12.116;2023-04-03T15:50:32;1.90;;;0.30;;
583;SDS011;27024;54.068;12.116;2023-04-03T15:53:00;2.35;;;0.40;;
583;SDS011;27024;54.068;12.116;2023-04-03T15:55:30;2.22;;;0.40;;
583;SDS011;27024;54.068;12.116;2023-04-03T15:57:58;2.63;;;0.43;;
583;SDS011;27024;54.068;12.116;2023-04-03T16:00:25;3.53;;;0.50;;
583;SDS011;27024;54.068;12.116;2023-04-03T16:02:54;3.17;;;0.60;;
583;SDS011;27024;54.068;12.116;2023-04-03T16:05:24;2.55;;;0.30;;
583;SDS011;27024;54.068;12.116;2023-04-03T16:07:51;2.83;;;0.70;;
583;SDS011;27024;54.068;12.116;2023-04-03T16:10:18;3.75;;;0.50;;
583;SDS011;27024;54.068;12.116;2023-04-03T16:12:45;1.67;;;0.45;;
583;SDS011;27024;54.068;12.116;2023-04-03T16:15:12;3.80;;;0.30;;
583;SDS011;27024;54.068;12.116;2023-04-03T16:17:39;4.13;;;0.60;;
583;SDS011;27024;54.068;12.116;2023-04-03T16:20:10;2.55;;;0.38;;
583;SDS011;27024;54.068;12.116;2023-04-03T16:22:39;3.13;;;0.43;;
583;SDS011;27024;54.068;12.116;2023-04-03T16:25:07;2.75;;;0.40;;
583;SDS011;27024;54.068;12.116;2023-04-03T16:27:35;1.30;;;0.30;;
583;SDS011;27024;54.068;12.116;2023-04-03T16:30:02;2.58;;;0.30;;
583;SDS011;27024;54.068;12.116;2023-04-03T16:32:29;2.38;;;0.52;;
583;SDS011;27024;54.068;12.116;2023-04-03T16:34:57;2.72;;;1.00;;
583;SDS011;27024;54.068;12.116;2023-04-03T16:37:30;2.22;;;0.40;;
583;SDS011;27024;54.068;12.116;2023-04-03T16:39:58;1.95;;;0.32;;
583;SDS011;27024;54.068;12.116;2023-04-03T16:42:25;3.03;;;0.47;;
583;SDS011;27024;54.068;12.116;2023-04-03T16:44:52;4.35;;;0.82;;
583;SDS011;27024;54.068;12.116;2023-04-03T16:47:19;4.28;;;0.70;;
583;SDS011;27024;54.068;12.116;2023-04-03T16:49:46;2.30;;;0.45;;
583;SDS011;27024;54.068;12.116;2023-04-03T16:52:13;3.83;;;0.40;;
583;SDS011;27024;54.068;12.116;2023-04-03T16:54:40;4.85;;;0.65;;
583;SDS011;27024;54.068;12.116;2023-04-03T16:57:07;3.78;;;0.40;;
583;SDS011;27024;54.068;12.116;2023-04-03T16:59:34;2.97;;;0.40;;
583;SDS011;27024;54.068;12.116;2023-04-03T17:02:01;1.83;;;0.50;;
583;SDS011;27024;54.068;12.116;2023-04-03T17:04:29;2.45;;;0.52;;
583;SDS011;27024;54.068;12.116;2023-04-03T17:06:55;2.53;;;0.40;;
583;SDS011;27024;54.068;12.116;2023-04-03T17:09:23;2.83;;;0.60;;
583;SDS011;27024;54.068;12.116;2023-04-03T17:11:50;1.80;;;0.52;;
583;SDS011;27024;54.068;12.116;2023-04-03T17:14:17;3.60;;;0.50;;
583;SDS011;27024;54.068;12.116;2023-04-03T17:16:44;2.80;;;0.52;;
583;SDS011;27024;54.068;12.116;2023-04-03T17:19:11;1.83;;;0.40;;
583;SDS011;27024;54.068;12.116;2023-04-03T17:21:38;3.50;;;0.40;;